Time;durP1;ratioP1;P1;durP2;ratioP2;P2;SDS_P1;SDS_P2;PMS_P1;PMS_P2;Temp;Humidity;BMP_temperature;BMP_pressure;BME280_temperature;BME280_humidity;BME280_pressure;Samples;Min_cycle;Max_cycle;Signal;HPM_P1;HPM_P2
2022/05/25 00:01:42;;;;;;;8.07;6.47;;;;;;;15.10;100.00;99980.78;5146700;23;20042;-69
2022/05/25 00:04:08;;;;;;;6.40;5.78;;;;;;;14.75;100.00;99961.91;4319588;28;10000680;-69
2022/05/25 00:06:34;;;;;;;7.43;6.45;;;;;;;14.69;100.00;99947.69;5013617;28;20572;-68
2022/05/25 00:09:00;;;;;;;7.32;6.40;;;;;;;14.83;100.00;99987.16;5030528;28;20030;-68
2022/05/25 00:11:26;;;;;;;8.27;6.18;;;;;;;14.98;100.00;99979.63;5029725;28;20030;-68
2022/05/25 00:13:51;;;;;;;8.20;6.13;;;;;;;14.86;100.00;99975.06;5021944;28;20065;-68
2022/05/25 00:16:17;;;;;;;10.68;5.85;;;;;;;14.99;100.00;99978.72;5009807;28;20034;-68
2022/05/25 00:21:28;;;;;;;7.32;5.55;;;;;;;14.87;100.00;99991.25;5011058;28;20489;-68
2022/05/25 00:23:53;;;;;;;8.30;6.03;;;;;;;14.39;100.00;99955.88;5011403;28;20112;-69
2022/05/25 00:26:19;;;;;;;9.10;5.70;;;;;;;14.76;100.00;99981.47;5009500;28;20133;-68
2022/05/25 00:28:44;;;;;;;7.63;5.43;;;;;;;14.58;100.00;99974.63;5010992;28;20095;-69
2022/05/25 00:31:10;;;;;;;8.80;5.63;;;;;;;14.29;100.00;99935.00;5011029;28;20032;-68
2022/05/25 00:33:35;;;;;;;7.32;6.00;;;;;;;14.53;100.00;99982.53;5010782;28;20455;-69
2022/05/25 00:36:01;;;;;;;8.73;6.13;;;;;;;14.50;100.00;99928.91;5010973;28;20026;-69
2022/05/25 00:38:26;;;;;;;9.88;7.10;;;;;;;14.19;100.00;99917.53;5011348;28;20026;-69
2022/05/25 00:40:52;;;;;;;10.55;7.47;;;;;;;14.49;100.00;99945.19;5010986;28;20026;-69
2022/05/25 00:43:17;;;;;;;10.80;7.57;;;;;;;14.63;100.00;99976.09;5012029;28;20397;-69
2022/05/25 00:45:58;;;;;;;13.10;8.27;;;;;;;14.41;100.00;99949.81;5030648;28;20044;-69
2022/05/25 00:48:50;;;;;;;9.98;8.57;;;;;;;14.26;100.00;99980.31;5030705;28;20083;-69
2022/05/25 00:51:24;;;;;;;15.32;8.10;;;;;;;14.64;100.00;99969.22;5030579;28;20136;-68
2022/05/25 00:54:03;;;;;;;12.30;8.27;;;;;;;14.32;100.00;99969.84;5030527;28;20037;-68
2022/05/25 00:56:30;;;;;;;14.43;8.55;;;;;;;14.12;100.00;99926.38;5030402;28;20119;-68
2022/05/25 00:59:26;;;;;;;11.82;8.80;;;;;;;14.05;100.00;99966.69;5030276;28;20037;-68
2022/05/25 01:01:51;;;;;;;11.23;8.45;;;;;;;14.36;100.00;99966.25;5010626;28;20068;-69
2022/05/25 01:04:17;;;;;;;13.45;8.55;;;;;;;14.43;100.00;99965.91;5030329;28;20499;-68
2022/05/25 01:07:16;;;;;;;11.20;8.38;;;;;;;14.19;100.00;99964.38;5030540;28;20052;-68
2022/05/25 01:10:02;;;;;;;12.35;9.10;;;;;;;13.98;100.00;99955.06;4992682;28;20431;-69
2022/05/25 01:12:36;;;;;;;17.27;9.52;;;;;;;14.11;100.00;99951.09;5012532;28;20032;-67
2022/05/25 01:15:14;;;;;;;13.85;9.57;;;;;;;14.45;100.00;99991.41;5012546;28;20116;-68
2022/05/25 01:18:04;;;;;;;12.38;8.75;;;;;;;14.60;100.00;100000.97;5030037;28;20033;-68
2022/05/25 01:21:13;;;;;;;11.73;8.70;;;;;;;14.51;100.00;99996.28;5029846;28;20400;-69
2022/05/25 01:24:09;;;;;;;14.13;10.20;;;;;;;14.37;100.00;99993.47;4943364;28;20091;-69
2022/05/25 01:26:40;;;;;;;14.98;9.98;;;;;;;14.50;100.00;99994.59;5030122;28;20033;-69
2022/05/25 01:29:28;;;;;;;13.00;9.75;;;;;;;14.46;100.00;99998.22;5030181;28;20067;-68
2022/05/25 01:32:26;;;;;;;11.45;9.55;;;;;;;14.60;100.00;99999.25;4985339;28;20044;-69
2022/05/25 01:34:59;;;;;;;12.98;9.32;;;;;;;14.44;100.00;99994.88;5050008;28;20025;-69
2022/05/25 01:37:42;;;;;;;14.23;10.20;;;;;;;14.26;100.00;99977.75;5050104;28;20486;-69
2022/05/25 01:40:34;;;;;;;12.70;8.80;;;;;;;14.46;100.00;100005.88;5053752;28;20479;-68
2022/05/25 01:43:06;;;;;;;12.05;8.65;;;;;;;13.83;100.00;99976.97;5054029;28;20518;-68
2022/05/25 01:45:34;;;;;;;13.05;7.90;;;;;;;14.02;100.00;100001.78;5035880;28;20037;-69
2022/05/25 01:48:04;;;;;;;10.82;7.15;;;;;;;14.07;100.00;99974.28;5045760;28;20477;-69
2022/05/25 01:50:36;;;;;;;12.98;8.35;;;;;;;14.41;100.00;99995.84;5033847;28;20022;-68
2022/05/25 01:53:07;;;;;;;9.70;6.57;;;;;;;14.36;100.00;99972.19;5033475;28;20033;-68
2022/05/25 01:55:38;;;;;;;10.60;8.07;;;;;;;14.13;100.00;100008.09;5033574;28;20037;-68
2022/05/25 01:58:09;;;;;;;10.30;7.88;;;;;;;13.90;100.00;99990.34;5033652;28;20486;-68
2022/05/25 02:00:39;;;;;;;8.15;7.07;;;;;;;14.36;100.00;99997.75;5032531;28;20033;-68
2022/05/25 02:06:07;;;;;;;11.82;7.45;;;;;;;14.21;100.00;99995.00;5033350;28;20513;-68
2022/05/25 02:08:51;;;;;;;10.88;7.00;;;;;;;14.44;100.00;100000.00;5039771;28;20030;-68
2022/05/25 02:11:27;;;;;;;9.80;6.63;;;;;;;14.19;100.00;100020.63;5036589;28;20029;-68
2022/05/25 02:14:08;;;;;;;10.38;6.32;;;;;;;14.20;100.00;100018.91;5052996;28;20145;-68
2022/05/25 02:17:09;;;;;;;9.00;6.72;;;;;;;14.19;100.00;99999.34;5035237;28;20090;-69
2022/05/25 02:19:49;;;;;;;11.75;6.40;;;;;;;14.11;100.00;100043.13;5033886;28;20060;-69
2022/05/25 02:22:20;;;;;;;8.40;5.47;;;;;;;14.56;100.00;100048.91;5052763;28;20040;-69
2022/05/25 02:25:18;;;;;;;8.68;6.07;;;;;;;14.44;100.00;100066.50;5053059;28;20033;-69
2022/05/25 02:28:00;;;;;;;8.95;6.35;;;;;;;14.34;100.00;100039.66;5020402;28;20122;-69
2022/05/25 02:30:30;;;;;;;10.70;6.70;;;;;;;14.31;100.00;100061.06;5052698;28;20574;-68
2022/05/25 02:33:05;;;;;;;8.13;6.28;;;;;;;14.42;100.00;100065.75;5052299;28;20372;-68
2022/05/25 02:35:33;;;;;;;9.35;6.60;;;;;;;14.46;100.00;100068.09;5051989;28;20061;-68
2022/05/25 04:38:29;;;;;;;5.53;4.97;;;;;;;15.71;100.00;100140.22;5103921;27;1331130;-68
2022/05/25 04:40:55;;;;;;;6.72;5.03;;;;;;;16.34;100.00;100191.06;5154375;27;20077;-68
2022/05/25 04:43:22;;;;;;;7.78;6.03;;;;;;;16.23;100.00;100185.59;5149604;27;20074;-68
2022/05/25 04:45:50;;;;;;;11.90;5.95;;;;;;;15.71;100.00;100128.22;5130839;27;20665;-68
2022/05/25 04:48:20;;;;;;;10.40;6.13;;;;;;;16.16;100.00;100186.81;5148944;27;20488;-69
2022/05/25 04:50:51;;;;;;;6.85;5.35;;;;;;;16.16;100.00;100146.56;5130140;27;20033;-69
2022/05/25 04:53:18;;;;;;;9.10;6.13;;;;;;;16.42;100.00;100200.03;5149086;27;20460;-68
2022/05/25 04:58:33;;;;;;;7.13;5.95;;;;;;;16.54;100.00;100205.53;5149257;27;20038;-72
2022/05/25 05:00:59;;;;;;;10.15;6.10;;;;;;;16.65;100.00;100206.66;5148900;27;20507;-69
2022/05/25 05:03:26;;;;;;;6.88;5.88;;;;;;;16.42;100.00;100207.72;5148885;27;20145;-72
2022/05/25 05:05:53;;;;;;;6.30;5.70;;;;;;;16.56;100.00;100160.06;5130398;27;20469;-72
2022/05/25 05:08:19;;;;;;;8.57;5.57;;;;;;;16.68;100.00;100159.47;5130026;27;20029;-69
2022/05/25 05:10:44;;;;;;;5.78;4.97;;;;;;;16.83;100.00;100174.94;5130355;27;20121;-71
2022/05/25 05:13:10;;;;;;;8.93;5.53;;;;;;;17.30;100.00;100226.44;5148893;27;20023;-70
2022/05/25 05:15:40;;;;;;;7.07;4.80;;;;;;;17.76;100.00;100206.91;5148413;27;20035;-72
2022/05/25 05:18:06;;;;;;;8.50;4.75;;;;;;;17.98;100.00;100153.38;5130195;27;20543;-70
2022/05/25 05:20:31;;;;;;;6.15;4.07;;;;;;;18.06;100.00;100198.34;5130227;27;20106;-71
2022/05/25 05:22:57;;;;;;;8.75;4.32;;;;;;;17.94;100.00;100240.19;5130201;27;20480;-70
2022/05/25 05:25:23;;;;;;;5.53;3.50;;;;;;;18.06;100.00;100249.00;5129962;27;20111;-70
2022/05/25 05:27:48;;;;;;;4.10;3.00;;;;;;;17.69;100.00;100250.13;5148368;27;20117;-70
2022/05/25 05:30:18;;;;;;;5.38;3.20;;;;;;;17.76;100.00;100217.19;5148463;27;20084;-69
2022/05/25 05:32:43;;;;;;;4.53;3.38;;;;;;;17.42;100.00;100202.69;5148507;27;20476;-69
2022/05/25 05:35:10;;;;;;;4.68;3.10;;;;;;;17.95;100.00;100262.44;5129696;27;20043;-69
2022/05/25 05:37:42;;;;;;;6.88;3.55;;;;;;;17.73;100.00;100207.06;5148361;27;20042;-69
2022/05/25 05:40:10;;;;;;;7.30;3.60;;;;;;;18.28;100.00;100210.03;5148216;27;20049;-69
2022/05/25 05:42:39;;;;;;;4.50;3.30;;;;;;;17.80;100.00;100182.69;5148275;27;20027;-69
2022/05/25 05:45:14;;;;;;;7.32;3.05;;;;;;;18.30;100.00;100262.25;5147817;27;20030;-68
2022/05/25 05:47:45;;;;;;;4.70;3.70;;;;;;;18.17;100.00;100231.22;5134191;27;20027;-69
2022/05/25 05:50:12;;;;;;;7.45;3.42;;;;;;;18.41;100.00;100214.41;5134278;27;20095;-68
2022/05/25 05:52:38;;;;;;;7.60;3.58;;;;;;;18.20;100.00;100274.81;5134070;27;20027;-69
2022/05/25 05:55:05;;;;;;;7.90;3.65;;;;;;;18.72;100.00;100227.22;5133993;27;20054;-68
2022/05/25 05:57:33;;;;;;;5.75;3.60;;;;;;;18.71;100.00;100243.63;5115435;27;20089;-69
2022/05/25 05:59:58;;;;;;;5.60;3.35;;;;;;;18.26;100.00;100235.03;5134099;27;20136;-69
2022/05/25 06:02:24;;;;;;;5.22;3.58;;;;;;;18.72;100.00;100240.09;5133964;27;20054;-69
2022/05/25 06:04:49;;;;;;;4.70;3.65;;;;;;;18.98;100.00;100265.22;5133964;27;20027;-69
2022/05/25 06:07:15;;;;;;;5.13;3.20;;;;;;;20.03;100.00;100270.03;5115461;27;20053;-69
2022/05/25 06:09:40;;;;;;;7.88;3.45;;;;;;;19.69;100.00;100247.22;5115435;27;20023;-69
2022/05/25 06:12:06;;;;;;;5.82;3.60;;;;;;;19.69;100.00;100281.59;5133508;27;20026;-69
2022/05/25 06:14:31;;;;;;;6.65;3.85;;;;;;;18.66;100.00;100281.66;5133908;27;20438;-69
2022/05/25 06:19:41;;;;;;;5.35;3.58;;;;;;;19.37;100.00;100232.91;5133653;27;20495;-69
2022/05/25 06:22:09;;;;;;;7.70;3.70;;;;;;;19.50;100.00;100277.66;5133580;27;20031;-69
2022/05/25 06:24:40;;;;;;;6.95;3.95;;;;;;;19.99;100.00;100286.66;5133256;27;20027;-70
2022/05/25 06:27:11;;;;;;;7.15;4.00;;;;;;;20.24;100.00;100286.84;5133575;27;20448;-70
2022/05/25 06:29:39;;;;;;;5.72;3.83;;;;;;;19.77;100.00;100237.28;5133533;27;20080;-69
2022/05/25 06:32:07;;;;;;;6.32;3.75;;;;;;;19.89;100.00;100242.50;5133727;27;20513;-70
2022/05/25 06:34:32;;;;;;;5.70;3.80;;;;;;;19.70;100.00;100261.81;5133547;27;20035;-69
2022/05/25 06:36:58;;;;;;;6.53;3.58;;;;;;;20.16;100.00;100272.69;5114513;27;20411;-68
2022/05/25 06:39:24;;;;;;;4.15;3.20;;;;;;;20.05;100.00;100257.03;5133412;27;20084;-69
2022/05/25 06:41:49;;;;;;;5.85;3.40;;;;;;;19.65;100.00;100248.34;5133465;27;20028;-69
2022/05/25 06:44:17;;;;;;;5.95;2.95;;;;;;;20.13;100.00;100271.13;5114630;27;20031;-69
2022/05/25 06:46:42;;;;;;;6.40;3.30;;;;;;;20.24;100.00;100275.66;5133362;27;20079;-70
2022/05/25 06:49:08;;;;;;;5.45;2.92;;;;;;;20.41;100.00;100278.00;5133299;27;20031;-69
2022/05/25 06:51:34;;;;;;;3.70;2.90;;;;;;;19.91;100.00;100306.13;5137890;27;20031;-69
2022/05/25 06:54:00;;;;;;;6.35;3.28;;;;;;;20.01;100.00;100224.59;5144431;27;20066;-69
2022/05/25 06:56:26;;;;;;;6.57;3.20;;;;;;;20.94;100.00;100300.38;5140924;27;20096;-69
2022/05/25 06:58:53;;;;;;;4.47;2.88;;;;;;;21.35;100.00;100301.09;5139776;27;20031;-69
2022/05/25 07:01:19;;;;;;;3.78;2.90;;;;;;;20.79;100.00;100280.72;5140864;27;20433;-69
2022/05/25 07:03:45;;;;;;;5.57;3.00;;;;;;;20.47;100.00;100234.53;5124567;27;20018;-69
2022/05/25 07:06:12;;;;;;;4.85;3.00;;;;;;;22.09;100.00;100303.72;5143312;27;20031;-69
2022/05/25 07:08:38;;;;;;;6.72;3.30;;;;;;;21.40;100.00;100257.63;5125516;27;20027;-69
2022/05/25 07:11:04;;;;;;;7.03;3.22;;;;;;;22.36;100.00;100310.38;5142347;27;20378;-69
2022/05/25 07:13:30;;;;;;;6.00;3.08;;;;;;;21.46;100.00;100298.63;5142151;27;20026;-69
2022/05/25 07:16:02;;;;;;;4.60;3.08;;;;;;;21.22;100.00;100264.88;5124679;27;20046;-68
2022/05/25 07:18:28;;;;;;;6.03;3.00;;;;;;;22.41;100.00;100299.69;5148063;27;20132;-69
2022/05/25 07:21:08;;;;;;;6.85;4.15;;;;;;;22.82;100.00;100297.56;5134739;27;20022;-68
2022/05/25 07:23:35;;;;;;;5.95;3.33;;;;;;;22.14;100.00;100306.84;5153633;27;20390;-69
2022/05/25 07:26:01;;;;;;;7.97;3.10;;;;;;;22.86;100.00;100309.34;5153250;27;20041;-69
2022/05/25 07:28:26;;;;;;;3.70;3.03;;;;;;;22.29;100.00;100280.69;5153319;27;20023;-69
2022/05/25 07:30:56;;;;;;;6.75;3.20;;;;;;;22.59;100.00;100313.13;5153491;27;20535;-68
2022/05/25 07:33:21;;;;;;;6.18;3.30;;;;;;;21.79;100.00;100267.81;5143110;27;20023;-69
2022/05/25 07:35:47;;;;;;;3.65;3.08;;;;;;;22.33;100.00;100250.19;5114112;27;20088;-68
2022/05/25 07:38:13;;;;;;;6.97;3.67;;;;;;;22.49;100.00;100289.59;5140837;27;20074;-69
2022/05/25 07:40:41;;;;;;;5.25;3.55;;;;;;;23.46;100.00;100285.00;5116262;27;20029;-68
2022/05/25 07:43:12;;;;;;;6.20;4.30;;;;;;;22.16;100.00;100325.69;5145551;27;20033;-69
2022/05/25 07:45:38;;;;;;;;;;;;;;;23.04;100.00;100320.97;5153358;27;20026;-69
2022/05/25 07:48:04;;;;;;;6.80;3.95;;;;;;;22.16;100.00;100247.97;5152572;27;20017;-69
2022/05/25 07:50:29;;;;;;;6.35;3.83;;;;;;;22.52;100.00;100337.81;5149113;27;20042;-69
2022/05/25 07:52:59;;;;;;;4.32;3.85;;;;;;;23.19;100.00;100337.19;5133199;27;20055;-69
2022/05/25 07:55:24;;;;;;;8.20;3.83;;;;;;;23.08;100.00;100272.28;5132071;27;20031;-69
2022/05/25 07:57:50;;;;;;;6.75;4.60;;;;;;;22.87;100.00;100295.47;5113443;27;20396;-69
2022/05/25 08:00:18;;;;;;;5.50;4.25;;;;;;;23.00;100.00;100316.94;5131911;27;20106;-69
2022/05/25 08:05:43;;;;;;;5.88;4.60;;;;;;;22.58;100.00;100285.56;5131987;27;20428;-69
2022/05/25 08:08:17;;;;;;;7.10;5.00;;;;;;;23.83;100.00;100331.41;5131809;27;20054;-69
2022/05/25 08:10:46;;;;;;;6.28;4.28;;;;;;;23.99;100.00;100331.88;5131609;27;20440;-70
2022/05/25 08:13:14;;;;;;;5.65;4.25;;;;;;;22.93;100.00;100344.31;5131624;27;20467;-70
2022/05/25 08:15:42;;;;;;;5.78;4.00;;;;;;;24.39;100.00;100307.97;5111919;27;20019;-70
2022/05/25 08:18:10;;;;;;;5.35;4.28;;;;;;;23.88;100.00;100308.50;5131536;27;20408;-70
2022/05/25 08:20:35;;;;;;;5.45;4.43;;;;;;;24.79;100.00;100254.41;5131005;27;20107;-70
2022/05/25 08:23:04;;;;;;;6.47;4.90;;;;;;;24.02;100.00;100290.09;5130596;27;20035;-70
2022/05/25 08:25:30;;;;;;;5.38;4.60;;;;;;;23.84;100.00;100286.31;5131268;27;20392;-70
2022/05/25 08:27:55;;;;;;;5.50;4.53;;;;;;;24.21;100.00;100280.81;5131620;28;20026;-70
2022/05/25 08:30:21;;;;;;;7.63;4.55;;;;;;;24.52;100.00;100319.84;5131670;27;20089;-70
2022/05/25 08:32:47;;;;;;;5.13;4.57;;;;;;;23.71;100.00;100297.78;5112677;28;20031;-70
2022/05/25 08:35:13;;;;;;;6.35;4.82;;;;;;;23.52;100.00;100287.94;5150315;27;20103;-71
2022/05/25 08:37:41;;;;;;;8.25;5.07;;;;;;;24.68;100.00;100324.69;5133296;27;20042;-71
2022/05/25 08:40:09;;;;;;;7.95;5.00;;;;;;;23.90;100.00;100337.78;5151887;27;20045;-71
2022/05/25 08:42:45;;;;;;;8.40;4.75;;;;;;;23.58;100.00;100329.03;5151869;27;20049;-71
2022/05/25 08:45:12;;;;;;;6.38;4.40;;;;;;;24.19;100.00;100332.94;5146234;27;20125;-71
2022/05/25 08:47:44;;;;;;;5.22;4.60;;;;;;;24.76;100.00;100302.31;5151988;27;20018;-71
2022/05/25 08:50:10;;;;;;;8.90;5.20;;;;;;;24.64;100.00;100331.88;5126906;27;20099;-71
2022/05/25 08:52:36;;;;;;;7.65;4.68;;;;;;;24.98;100.00;100318.78;5113332;28;20463;-72
2022/05/25 08:55:06;;;;;;;6.80;5.10;;;;;;;24.66;100.00;100322.19;5131162;28;20035;-71
2022/05/25 08:57:51;;;;;;;7.78;5.72;;;;;;;23.79;100.00;100313.59;5112986;28;20412;-70
2022/05/25 09:00:18;;;;;;;7.47;5.68;;;;;;;25.09;100.00;100290.91;5126256;27;20055;-71
2022/05/25 09:03:08;;;;;;;6.40;5.80;;;;;;;24.08;100.00;100296.59;5143804;27;20031;-69
2022/05/25 09:05:40;;;;;;;8.48;6.00;;;;;;;24.32;100.00;100286.00;5112849;28;20509;-70
2022/05/25 09:08:08;;;;;;;7.97;6.22;;;;;;;25.95;100.00;100335.63;5131072;28;20037;-70
2022/05/25 09:10:47;;;;;;;5.80;5.18;;;;;;;25.24;100.00;100284.41;5111974;28;20042;-70
2022/05/25 09:13:18;;;;;;;6.88;4.88;;;;;;;25.50;100.00;100327.38;5111742;28;20123;-70
2022/05/25 09:18:40;;;;;;;6.90;6.18;;;;;;;25.26;100.00;100337.19;5131023;28;19922;-69
2022/05/25 09:21:06;;;;;;;8.27;5.22;;;;;;;25.53;100.00;100313.25;5132019;27;20039;-69
2022/05/25 09:23:33;;;;;;;5.90;5.10;;;;;;;25.63;100.00;100329.78;5134265;27;20023;-69
2022/05/25 09:25:59;;;;;;;8.38;5.25;;;;;;;25.77;100.00;100280.72;5133824;27;20118;-69
2022/05/25 09:28:38;;;;;;;6.95;4.90;;;;;;;25.38;100.00;100325.75;5134210;27;20482;-69
2022/05/25 09:31:06;;;;;;;5.32;4.82;;;;;;;26.37;100.00;100285.00;5134079;27;20058;-69
2022/05/25 09:33:39;;;;;;;6.65;5.30;;;;;;;25.51;100.00;100291.72;5134181;27;20026;-69
2022/05/25 09:36:14;;;;;;;7.25;6.55;;;;;;;26.39;100.00;100317.00;5133843;27;20032;-69
2022/05/25 09:38:42;;;;;;;6.22;5.63;;;;;;;26.53;100.00;100323.59;5134168;27;20051;-70
2022/05/25 09:41:14;;;;;;;6.50;5.90;;;;;;;26.25;100.00;100316.53;5134732;27;20481;-69
2022/05/25 09:43:41;;;;;;;7.32;6.20;;;;;;;24.58;100.00;100321.16;5134352;27;20458;-70
2022/05/25 09:46:18;;;;;;;7.00;6.40;;;;;;;25.55;100.00;100239.22;5134380;27;20484;-69
2022/05/25 09:48:50;;;;;;;9.05;7.07;;;;;;;26.50;100.00;100316.84;5136278;27;20054;-72
2022/05/25 09:51:52;;;;;;;10.07;6.88;;;;;;;26.67;100.00;100319.75;5151785;27;20056;-71
2022/05/25 09:54:18;;;;;;;7.32;6.70;;;;;;;26.26;100.00;100328.66;5100049;27;20043;-70
2022/05/25 09:56:53;;;;;;;7.40;6.75;;;;;;;26.30;100.00;100325.63;5155338;27;20031;-72
2022/05/25 09:59:33;;;;;;;7.70;6.90;;;;;;;25.58;100.00;100236.38;5136347;27;20037;-72
2022/05/25 10:01:59;;;;;;;7.65;6.30;;;;;;;26.27;100.00;100249.44;5144232;27;20052;-71
2022/05/25 10:04:52;;;;;;;7.75;6.43;;;;;;;26.60;100.00;100315.09;5145737;27;20034;-71
2022/05/25 10:07:25;;;;;;;8.77;6.95;;;;;;;26.83;100.00;100309.63;5136368;27;20075;-71
2022/05/25 10:09:52;;;;;;;8.68;6.40;;;;;;;27.08;100.00;100309.03;5154571;27;20454;-73
2022/05/25 10:12:40;;;;;;;7.88;6.63;;;;;;;26.43;100.00;100305.34;5155192;27;20117;-70
2022/05/25 10:15:09;;;;;;;7.45;6.78;;;;;;;26.16;100.00;100260.00;5154707;27;20107;-69
2022/05/25 10:17:46;;;;;;;8.68;6.63;;;;;;;27.28;100.00;100302.81;5154597;27;20019;-69
2022/05/25 10:20:28;;;;;;;7.82;7.05;;;;;;;26.50;100.00;100262.06;5154251;27;20034;-69
2022/05/25 10:23:25;;;;;;;7.85;6.85;;;;;;;26.01;100.00;100250.91;5145673;27;20027;-69
2022/05/25 10:25:57;;;;;;;8.23;6.60;;;;;;;26.82;100.00;100280.09;5135078;27;20641;-69
2022/05/25 10:28:24;;;;;;;8.52;6.45;;;;;;;26.55;100.00;100295.59;5153880;27;20086;-69
2022/05/25 10:37:12;;;;;;;;;;;;;;;26.24;100.00;100291.44;5146721;27;20042;-69
2022/05/25 10:39:43;;;;;;;8.75;7.03;;;;;;;26.51;100.00;100244.66;5133311;27;19911;-69
2022/05/25 10:42:45;;;;;;;7.40;6.70;;;;;;;27.52;100.00;100289.31;5133482;27;20027;-68
2022/05/25 10:45:41;;;;;;;7.90;7.30;;;;;;;25.81;100.00;100280.47;5114608;27;20024;-68
2022/05/25 10:48:18;;;;;;;7.75;6.95;;;;;;;27.52;100.00;100278.84;5133062;27;20118;-69
2022/05/25 10:50:55;;;;;;;8.15;7.13;;;;;;;26.72;100.00;100276.66;5133180;27;20035;-68
2022/05/25 10:53:36;;;;;;;8.80;8.00;;;;;;;27.40;100.00;100283.44;5133201;27;20023;-69
2022/05/25 10:56:28;;;;;;;9.13;7.85;;;;;;;26.85;100.00;100227.63;5114543;27;20114;-69
2022/05/25 10:59:12;;;;;;;8.27;7.57;;;;;;;27.07;100.00;100276.06;5133013;27;20035;-69
2022/05/25 11:01:43;;;;;;;7.95;7.25;;;;;;;26.98;100.00;100275.13;5133196;27;20027;-68
2022/05/25 11:04:09;;;;;;;7.75;6.97;;;;;;;26.96;100.00;100276.25;5140487;27;20054;-69
2022/05/25 11:06:53;;;;;;;8.50;7.68;;;;;;;26.99;100.00;100266.34;5136619;27;20411;-69
2022/05/25 11:09:18;;;;;;;8.23;7.45;;;;;;;27.83;100.00;100285.47;5133041;27;20027;-69
2022/05/25 11:12:01;;;;;;;8.40;7.70;;;;;;;26.83;100.00;100278.31;5145270;27;20033;-71
2022/05/25 11:14:26;;;;;;;9.02;8.13;;;;;;;26.69;100.00;100281.31;5153110;27;20130;-68
2022/05/25 11:17:07;;;;;;;7.93;7.28;;;;;;;27.17;100.00;100272.50;5134779;27;20037;-68
2022/05/25 11:19:59;;;;;;;12.10;7.70;;;;;;;27.75;100.00;100285.38;5153448;27;20034;-69
2022/05/25 11:22:30;;;;;;;9.63;8.73;;;;;;;25.87;100.00;100285.16;5134697;27;20137;-69
2022/05/25 11:25:06;;;;;;;9.40;8.43;;;;;;;27.17;100.00;100266.44;5153026;27;20023;-69
2022/05/25 11:27:57;;;;;;;10.50;9.45;;;;;;;26.92;100.00;100261.81;5153273;27;20030;-70
2022/05/25 11:30:45;;;;;;;9.50;8.53;;;;;;;27.65;100.00;100281.97;5153018;27;20023;-70
2022/05/25 11:33:32;;;;;;;9.90;8.60;;;;;;;27.35;100.00;100276.06;5134239;27;20464;-70
2022/05/25 11:36:31;;;;;;;10.35;8.48;;;;;;;27.32;100.00;100285.91;5153060;27;20038;-69
2022/05/25 11:39:28;;;;;;;11.23;9.00;;;;;;;26.88;100.00;100274.31;5134059;27;20046;-68
2022/05/25 11:42:17;;;;;;;10.77;9.73;;;;;;;26.73;100.00;100277.50;5152996;27;20038;-70
2022/05/25 11:45:04;;;;;;;13.18;11.82;;;;;;;27.05;100.00;100272.78;5152468;27;20495;-69
2022/05/25 11:47:46;;;;;;;10.90;9.88;;;;;;;27.13;100.00;100262.47;5152812;27;20022;-70
2022/05/25 11:50:20;;;;;;;11.27;10.10;;;;;;;27.68;100.00;100258.16;5152806;27;20433;-69
2022/05/25 11:53:18;;;;;;;10.65;9.73;;;;;;;28.01;100.00;100250.56;5127080;27;20064;-69
2022/05/25 11:56:20;;;;;;;12.27;10.00;;;;;;;27.68;100.00;100243.31;5143192;27;20514;-71
2022/05/25 11:59:01;;;;;;;12.65;11.05;;;;;;;27.40;100.00;100249.47;5146934;27;20042;-70
2022/05/25 12:01:38;;;;;;;11.90;10.90;;;;;;;27.59;100.00;100243.34;5113382;27;20380;-68
2022/05/25 12:04:34;;;;;;;11.75;10.77;;;;;;;26.24;100.00;100241.91;5131886;27;20031;-73
2022/05/25 12:07:24;;;;;;;14.77;11.68;;;;;;;27.47;100.00;100240.13;5131886;27;20028;-69
2022/05/25 12:10:07;;;;;;;17.38;12.77;;;;;;;27.93;100.00;100241.81;5131723;27;20035;-71
2022/05/25 12:13:03;;;;;;;22.90;13.07;;;;;;;27.41;100.00;100238.06;5113232;27;20058;-70
2022/05/25 12:15:56;;;;;;;16.33;12.23;;;;;;;27.55;100.00;100226.31;5102594;27;20038;-69
2022/05/25 12:18:49;;;;;;;22.85;12.20;;;;;;;27.38;100.00;100167.81;5131670;27;20023;-69
2022/05/25 12:21:22;;;;;;;47.10;15.45;;;;;;;27.00;100.00;100197.47;5112861;27;20035;-72
2022/05/25 12:24:15;;;;;;;17.25;12.50;;;;;;;27.11;100.00;100217.38;5134598;27;20030;-70
2022/05/25 12:26:41;;;;;;;14.25;12.93;;;;;;;26.66;100.00;100213.75;5146580;27;20031;-69
2022/05/25 12:29:27;;;;;;;13.32;12.20;;;;;;;27.75;100.00;100199.13;5152211;27;20026;-69
2022/05/25 12:31:56;;;;;;;13.55;12.45;;;;;;;26.88;100.00;100208.25;5152421;27;20043;-71
2022/05/25 12:34:37;;;;;;;15.20;13.80;;;;;;;27.70;100.00;100162.13;5152308;27;20038;-69
2022/05/25 12:37:03;;;;;;;;;;;;;;;26.87;100.00;100210.03;5153083;27;20072;-71
2022/05/25 12:39:46;;;;;;;14.52;13.23;;;;;;;27.61;100.00;100200.44;5133802;27;19915;-72
2022/05/25 12:42:24;;;;;;;14.27;12.93;;;;;;;28.42;100.00;100212.56;5134054;27;20099;-74
2022/05/25 12:50:52;;;;;;;17.13;15.73;;;;;;;27.68;100.00;100206.72;5148227;27;20042;-72
2022/05/25 12:53:20;;;;;;;16.10;14.60;;;;;;;28.64;100.00;100206.06;5152328;27;20034;-72
2022/05/25 12:55:57;;;;;;;17.48;16.13;;;;;;;27.57;100.00;100141.59;5134063;27;20121;-72
2022/05/25 12:58:38;;;;;;;17.65;16.35;;;;;;;27.39;100.00;100199.00;5157159;27;20515;-74
2022/05/25 13:01:12;;;;;;;15.82;14.63;;;;;;;27.29;100.00;100194.78;5157607;27;20456;-74
2022/05/25 13:04:00;;;;;;;15.10;13.90;;;;;;;27.55;100.00;100177.50;5157160;27;20023;-74
2022/05/25 13:06:29;;;;;;;15.20;13.98;;;;;;;27.70;100.00;100186.47;5138430;27;20484;-74
2022/05/25 13:08:58;;;;;;;16.30;14.95;;;;;;;28.06;100.00;100193.44;5147952;27;20449;-73
2022/05/25 13:11:42;;;;;;;16.20;14.55;;;;;;;28.00;100.00;100196.63;5117519;27;20034;-73
2022/05/25 13:14:16;;;;;;;16.33;15.02;;;;;;;27.81;100.00;100190.69;5135953;27;20100;-74
2022/05/25 13:16:51;;;;;;;18.58;16.75;;;;;;;28.02;100.00;100199.09;5135795;27;20027;-73
2022/05/25 13:19:16;;;;;;;17.08;15.80;;;;;;;28.24;100.00;100201.28;5135150;27;20551;-73
2022/05/25 13:21:52;;;;;;;16.45;15.07;;;;;;;27.64;100.00;100160.94;5147434;27;20084;-75
2022/05/25 13:24:38;;;;;;;18.63;17.33;;;;;;;27.40;100.00;100151.03;5156286;27;20100;-72
2022/05/25 13:27:21;;;;;;;18.38;16.52;;;;;;;27.32;100.00;100210.16;5156196;27;20027;-75
2022/05/25 13:30:13;;;;;;;18.70;17.33;;;;;;;27.57;100.00;100214.75;5154308;27;20030;-74
2022/05/25 13:32:57;;;;;;;18.15;16.83;;;;;;;27.52;100.00;100223.97;5142704;27;20033;-72
2022/05/25 13:35:22;;;;;;;18.05;16.80;;;;;;;27.24;100.00;100220.50;5137317;27;20038;-74
2022/05/25 13:37:59;;;;;;;18.38;16.98;;;;;;;28.10;100.00;100193.94;5155976;27;20043;-72
2022/05/25 13:40:38;;;;;;;18.15;16.85;;;;;;;27.62;100.00;100165.47;5155743;27;20137;-73
2022/05/25 13:43:07;;;;;;;21.00;19.60;;;;;;;27.70;100.00;100198.72;5156015;27;20054;-74
2022/05/25 13:45:40;;;;;;;22.15;20.55;;;;;;;26.59;100.00;100216.91;5155863;27;20023;-75
2022/05/25 13:48:13;;;;;;;20.95;19.55;;;;;;;28.23;100.00;100216.13;5156027;27;20038;-74
2022/05/25 13:50:41;;;;;;;20.58;19.08;;;;;;;28.25;100.00;100215.97;5155768;27;20035;-74
2022/05/25 13:53:11;;;;;;;19.98;18.52;;;;;;;28.58;100.00;100206.66;5155659;27;20094;-72
2022/05/25 13:55:39;;;;;;;18.98;17.48;;;;;;;27.41;100.00;100149.25;5155511;27;20522;-72
2022/05/25 13:58:16;;;;;;;19.27;17.77;;;;;;;26.83;100.00;100203.44;5155630;27;20031;-72
2022/05/25 14:00:46;;;;;;;20.30;18.70;;;;;;;27.52;100.00;100162.09;5136616;27;20453;-72
2022/05/25 14:03:15;;;;;;;23.03;21.17;;;;;;;27.29;100.00;100210.47;5155010;27;20027;-73
2022/05/25 14:05:56;;;;;;;24.55;22.77;;;;;;;26.77;100.00;100167.47;5155351;27;20038;-72
2022/05/25 14:11:19;;;;;;;24.38;22.50;;;;;;;27.63;100.00;100206.34;5154882;27;20039;-72
2022/05/25 14:13:46;;;;;;;23.77;22.27;;;;;;;27.74;100.00;100198.28;5154959;27;20026;-72
2022/05/25 14:16:23;;;;;;;24.88;23.08;;;;;;;27.25;100.00;100149.84;5154969;27;20032;-71